Time;durP1;ratioP1;P1;durP2;ratioP2;P2;SDS_P1;SDS_P2;PMS_P1;PMS_P2;Temp;Humidity;BMP_temperature;BMP_pressure;BME280_temperature;BME280_humidity;BME280_pressure;Samples;Min_cycle;Max_cycle;Signal;HPM_P1;HPM_P2
2023/01/11 00:02:01;;;;;;;5.75;1.50;;;10.90;99.90;;;;;;4996604;28;20468;-76
2023/01/11 00:04:29;;;;;;;3.58;1.17;;;10.90;99.90;;;;;;5018595;28;20045;-76
2023/01/11 00:06:56;;;;;;;4.63;1.30;;;10.90;99.90;;;;;;5017417;28;20123;-76
2023/01/11 00:09:23;;;;;;;5.15;1.42;;;10.90;99.90;;;;;;5017437;28;20132;-76
2023/01/11 00:11:49;;;;;;;4.32;1.67;;;10.90;99.90;;;;;;5011445;28;20052;-76
2023/01/11 00:14:16;;;;;;;5.35;1.48;;;10.80;99.90;;;;;;5016842;28;20053;-76
2023/01/11 00:16:43;;;;;;;2.65;1.10;;;10.80;99.90;;;;;;5001426;28;20052;-76
2023/01/11 00:19:10;;;;;;;5.20;1.73;;;10.80;99.90;;;;;;5019074;28;20050;-76
2023/01/11 00:21:36;;;;;;;3.75;1.52;;;10.80;99.90;;;;;;5018607;28;20053;-76
2023/01/11 00:24:03;;;;;;;4.40;1.38;;;10.80;99.90;;;;;;5016936;28;20053;-76
2023/01/11 00:26:30;;;;;;;2.78;1.10;;;10.80;99.90;;;;;;5018939;28;20073;-76
2023/01/11 00:28:57;;;;;;;2.28;1.00;;;10.80;99.90;;;;;;5017910;28;20049;-76
2023/01/11 00:31:23;;;;;;;3.60;1.10;;;10.80;99.90;;;;;;5017299;28;20053;-76
2023/01/11 00:33:50;;;;;;;4.32;1.10;;;10.80;99.90;;;;;;5020509;28;20053;-75
2023/01/11 00:36:17;;;;;;;5.65;1.67;;;10.80;99.90;;;;;;5021411;28;20098;-77
2023/01/11 00:38:52;;;;;;;3.03;1.27;;;10.80;99.90;;;;;;5022308;28;20045;-76
2023/01/11 00:49:36;;;;;;;1.88;0.90;;;10.80;99.90;;;;;;5021807;28;20045;-76
2023/01/11 00:52:07;;;;;;;2.75;0.93;;;10.70;99.90;;;;;;5021437;28;20052;-77
2023/01/11 00:54:37;;;;;;;2.35;0.73;;;10.70;99.90;;;;;;5021278;28;20456;-76
2023/01/11 00:57:06;;;;;;;2.25;0.90;;;10.70;99.90;;;;;;4988396;28;20375;-76
2023/01/11 00:59:33;;;;;;;2.58;0.80;;;10.60;99.90;;;;;;5021119;28;20152;-76
2023/01/11 01:02:00;;;;;;;2.80;1.00;;;10.60;99.90;;;;;;5020370;28;20215;-76
2023/01/11 01:04:27;;;;;;;8.00;2.05;;;10.50;99.90;;;;;;5020097;28;20339;-76
2023/01/11 01:06:54;;;;;;;4.80;1.90;;;10.50;99.90;;;;;;5021944;28;20495;-76
2023/01/11 01:09:20;;;;;;;3.55;1.60;;;10.50;99.90;;;;;;5020205;28;20049;-76
2023/01/11 01:11:47;;;;;;;3.30;0.65;;;10.50;99.90;;;;;;5021727;28;20045;-76
2023/01/11 01:14:29;;;;;;;4.70;1.70;;;10.40;99.90;;;;;;5022008;28;20056;-76
2023/01/11 01:17:01;;;;;;;4.22;1.73;;;10.40;99.90;;;;;;5006506;28;20060;-76
2023/01/11 01:19:29;;;;;;;4.07;1.05;;;10.40;99.90;;;;;;5020088;28;20075;-76
2023/01/11 01:21:56;;;;;;;3.28;1.15;;;10.30;99.90;;;;;;5021354;28;20132;-76
2023/01/11 01:24:23;;;;;;;3.45;1.10;;;10.30;99.90;;;;;;5019701;28;20389;-76
2023/01/11 01:26:50;;;;;;;2.35;1.08;;;10.30;99.90;;;;;;4987516;28;20046;-76
2023/01/11 01:29:16;;;;;;;2.63;1.00;;;10.30;99.90;;;;;;5020421;28;20054;-76
2023/01/11 01:31:43;;;;;;;2.67;1.05;;;10.30;99.90;;;;;;5019541;28;20061;-76
2023/01/11 01:34:11;;;;;;;2.58;1.05;;;10.20;99.90;;;;;;5018907;28;20515;-76
2023/01/11 01:36:37;;;;;;;2.78;1.02;;;10.30;99.90;;;;;;5003202;28;20195;-76
2023/01/11 01:39:05;;;;;;;4.88;1.50;;;10.20;99.90;;;;;;5019633;28;20429;-76
2023/01/11 01:41:32;;;;;;;4.03;0.98;;;10.20;99.90;;;;;;5003297;28;20041;-76
2023/01/11 01:44:01;;;;;;;5.20;1.83;;;10.20;99.90;;;;;;5020944;28;20072;-75
2023/01/11 01:46:29;;;;;;;4.93;1.48;;;10.20;99.90;;;;;;5019393;28;20500;-76
2023/01/11 01:49:06;;;;;;;7.05;1.73;;;10.10;99.90;;;;;;5002211;28;20061;-76
2023/01/11 01:51:38;;;;;;;4.57;1.27;;;10.10;99.90;;;;;;5002870;28;20075;-76
2023/01/11 01:54:06;;;;;;;5.55;1.75;;;10.10;99.90;;;;;;5003484;28;20079;-76
2023/01/11 01:56:44;;;;;;;3.58;1.02;;;10.10;99.90;;;;;;5003327;28;20053;-76
2023/01/11 01:59:11;;;;;;;2.75;1.25;;;10.00;99.90;;;;;;5004040;28;20131;-76
2023/01/11 02:01:48;;;;;;;3.85;1.35;;;10.00;99.90;;;;;;5002811;28;20512;-76
2023/01/11 02:04:28;;;;;;;3.10;1.40;;;10.00;99.90;;;;;;4988644;28;20416;-76
2023/01/11 02:07:07;;;;;;;2.88;1.00;;;9.90;99.90;;;;;;5019501;28;20157;-76
2023/01/11 02:10:03;;;;;;;4.10;1.27;;;9.90;99.90;;;;;;5020305;28;20528;-76
2023/01/11 02:12:57;;;;;;;4.82;1.20;;;9.80;99.90;;;;;;5015151;28;20063;-76
2023/01/11 02:15:24;;;;;;;;;;;9.80;99.90;;;;;;5016370;28;20045;-76
2023/01/11 02:17:50;;;;;;;3.90;1.45;;;9.80;99.90;;;;;;5020773;28;19921;-75
2023/01/11 02:20:34;;;;;;;4.53;1.50;;;9.80;99.90;;;;;;5002239;28;20369;-75
2023/01/11 02:23:45;;;;;;;4.40;1.30;;;9.70;99.90;;;;;;5003993;28;20417;-76
2023/01/11 02:26:17;;;;;;;3.47;1.35;;;9.70;99.90;;;;;;5017074;28;20057;-75
2023/01/11 02:28:55;;;;;;;2.83;1.20;;;9.70;99.90;;;;;;5002861;28;20041;-75
2023/01/11 02:31:31;;;;;;;7.93;2.30;;;9.60;99.90;;;;;;5020880;28;20045;-75
2023/01/11 02:34:26;;;;;;;3.40;1.30;;;9.60;99.90;;;;;;4989384;28;20049;-75
2023/01/11 02:37:30;;;;;;;5.55;1.90;;;9.60;99.90;;;;;;5024190;28;20133;-76
2023/01/11 02:40:06;;;;;;;4.43;1.42;;;9.60;99.90;;;;;;5022231;28;20080;-75
2023/01/11 02:45:47;;;;;;;3.63;1.23;;;9.50;99.90;;;;;;5010666;28;20053;-75
2023/01/11 02:48:39;;;;;;;2.97;1.23;;;9.50;99.90;;;;;;5024909;28;20130;-75
2023/01/11 02:51:15;;;;;;;5.00;1.50;;;9.50;99.90;;;;;;5025514;28;20068;-75
2023/01/11 02:53:52;;;;;;;6.93;1.75;;;9.40;99.90;;;;;;5008546;28;20071;-75
2023/01/11 02:56:22;;;;;;;4.50;1.30;;;9.40;99.90;;;;;;5008375;28;20448;-75
2023/01/11 02:58:50;;;;;;;3.85;1.50;;;9.40;99.90;;;;;;4991585;28;20205;-75
2023/01/11 03:01:17;;;;;;;6.43;1.65;;;9.40;99.90;;;;;;5008475;28;20417;-75
2023/01/11 03:03:44;;;;;;;8.18;2.17;;;9.40;99.90;;;;;;4991396;28;20119;-75
2023/01/11 03:06:14;;;;;;;8.65;2.30;;;9.40;99.90;;;;;;5023285;28;20045;-76
2023/01/11 03:08:50;;;;;;;7.13;2.03;;;9.40;99.90;;;;;;5007443;28;20052;-75
2023/01/11 03:14:10;;;;;;;3.53;1.60;;;9.40;99.90;;;;;;5010742;28;20045;-75
2023/01/11 03:16:47;;;;;;;13.80;2.23;;;9.40;99.90;;;;;;5024613;28;20642;-75
2023/01/11 03:19:23;;;;;;;5.50;1.73;;;9.40;99.90;;;;;;5007340;28;20305;-74
2023/01/11 03:22:11;;;;;;;8.15;1.77;;;9.40;99.90;;;;;;5023467;28;20099;-75
2023/01/11 03:24:45;;;;;;;6.97;1.73;;;9.40;99.90;;;;;;5008105;28;20049;-75
2023/01/11 03:28:04;;;;;;;6.30;2.00;;;9.40;99.90;;;;;;5023916;28;20083;-75
2023/01/11 03:30:37;;;;;;;5.00;1.50;;;9.30;99.90;;;;;;5002359;28;20041;-76
2023/01/11 03:33:16;;;;;;;2.88;1.33;;;9.30;99.90;;;;;;5008443;28;20377;-76
2023/01/11 03:35:50;;;;;;;5.70;1.67;;;9.30;99.90;;;;;;5007063;28;20159;-75
2023/01/11 03:38:20;;;;;;;4.20;1.67;;;9.30;99.90;;;;;;5007758;28;20054;-75
2023/01/11 03:40:54;;;;;;;3.13;1.48;;;9.30;99.90;;;;;;5025208;28;20144;-75
2023/01/11 03:43:20;;;;;;;;;;;9.20;99.90;;;;;;5008826;28;20128;-75
2023/01/11 03:46:08;;;;;;;8.70;1.98;;;9.20;99.90;;;;;;5007444;28;19921;-75
2023/01/11 03:49:00;;;;;;;4.85;2.03;;;9.20;99.90;;;;;;5010211;28;20053;-75
2023/01/11 03:51:30;;;;;;;6.25;2.33;;;9.10;99.90;;;;;;5008438;28;20071;-75
2023/01/11 03:53:58;;;;;;;5.50;1.58;;;9.10;99.90;;;;;;4990869;28;20056;-75
2023/01/11 03:56:32;;;;;;;5.70;1.60;;;9.10;99.90;;;;;;5007972;28;20054;-75
2023/01/11 03:58:59;;;;;;;4.22;1.88;;;9.00;99.90;;;;;;5023802;28;20493;-75
2023/01/11 04:01:26;;;;;;;5.45;1.90;;;9.00;99.90;;;;;;5024440;28;20054;-75
2023/01/11 04:03:53;;;;;;;3.15;1.00;;;8.90;99.90;;;;;;5006376;28;20468;-75
2023/01/11 04:06:19;;;;;;;4.03;1.20;;;8.90;99.90;;;;;;5023619;28;20058;-75
2023/01/11 04:08:46;;;;;;;2.65;1.40;;;8.90;99.90;;;;;;5009734;28;21027;-77
2023/01/11 04:11:13;;;;;;;3.90;1.15;;;8.90;99.90;;;;;;5029038;28;20065;-75
2023/01/11 04:13:40;;;;;;;3.95;1.25;;;8.90;99.90;;;;;;5027523;28;20052;-75
2023/01/11 04:16:06;;;;;;;9.95;2.00;;;8.80;99.90;;;;;;5011630;28;20054;-75
2023/01/11 04:18:33;;;;;;;4.28;1.70;;;8.80;99.90;;;;;;5010794;28;20148;-75
2023/01/11 04:21:00;;;;;;;5.13;1.65;;;8.80;99.90;;;;;;5010006;28;20064;-76
2023/01/11 04:23:26;;;;;;;5.07;1.40;;;8.70;99.90;;;;;;4994575;28;20060;-75
2023/01/11 04:25:53;;;;;;;3.05;1.15;;;8.70;99.90;;;;;;5026963;28;20060;-74
2023/01/11 04:28:20;;;;;;;4.03;1.30;;;8.70;99.90;;;;;;5027720;28;20053;-75
2023/01/11 04:30:47;;;;;;;4.63;1.30;;;8.60;99.90;;;;;;5028826;28;20056;-75
2023/01/11 04:33:14;;;;;;;5.35;1.83;;;8.60;99.90;;;;;;5028324;28;20056;-75
2023/01/11 04:35:41;;;;;;;6.82;1.98;;;8.70;99.90;;;;;;5026346;28;20106;-75
2023/01/11 04:38:07;;;;;;;6.28;1.40;;;8.60;99.90;;;;;;5028707;28;20129;-75
2023/01/11 04:40:34;;;;;;;6.95;2.15;;;8.60;99.90;;;;;;5028414;28;20385;-75
2023/01/11 04:43:01;;;;;;;4.22;1.60;;;8.60;99.90;;;;;;5027604;28;20049;-75
2023/01/11 04:45:28;;;;;;;4.43;1.20;;;8.60;99.90;;;;;;5028509;28;20045;-76
2023/01/11 04:47:55;;;;;;;5.63;1.80;;;8.60;99.90;;;;;;5010879;28;20491;-71
2023/01/11 04:50:25;;;;;;;4.22;1.40;;;8.60;99.90;;;;;;5027605;28;20064;-73
2023/01/11 04:52:52;;;;;;;5.70;1.52;;;8.60;99.90;;;;;;5027103;28;20501;-72
2023/01/11 04:55:19;;;;;;;6.05;2.00;;;8.60;99.90;;;;;;5027070;28;20129;-73
2023/01/11 04:57:46;;;;;;;4.57;1.77;;;8.60;99.90;;;;;;5027972;28;20057;-73
2023/01/11 05:00:14;;;;;;;3.25;1.00;;;8.60;99.90;;;;;;5028231;28;20400;-72
2023/01/11 05:02:41;;;;;;;4.78;1.40;;;8.50;99.90;;;;;;5026419;28;20057;-73
2023/01/11 05:05:09;;;;;;;4.10;1.83;;;8.40;99.90;;;;;;5025236;28;20053;-73
2023/01/11 05:07:37;;;;;;;4.28;1.60;;;8.40;99.90;;;;;;5010004;28;20124;-73
2023/01/11 05:10:05;;;;;;;4.20;1.40;;;8.40;99.90;;;;;;5010416;28;20107;-73
2023/01/11 05:12:31;;;;;;;6.80;1.77;;;8.40;99.90;;;;;;5026246;28;20048;-73
2023/01/11 05:14:58;;;;;;;4.68;1.77;;;8.40;99.90;;;;;;5010524;28;20057;-73
2023/01/11 05:17:25;;;;;;;3.90;1.60;;;8.40;99.90;;;;;;5027834;28;20049;-73
2023/01/11 05:19:51;;;;;;;4.90;1.52;;;8.40;99.90;;;;;;5023991;28;20057;-72
2023/01/11 05:22:18;;;;;;;5.03;1.73;;;8.40;99.90;;;;;;5027184;28;20053;-73
2023/01/11 05:24:45;;;;;;;3.75;1.67;;;8.40;99.90;;;;;;5024547;28;20053;-73
2023/01/11 05:27:11;;;;;;;2.65;1.13;;;8.40;99.90;;;;;;5026109;28;20504;-73
2023/01/11 05:29:38;;;;;;;6.78;2.17;;;8.30;99.90;;;;;;5027767;28;20239;-73
2023/01/11 05:32:05;;;;;;;4.82;2.05;;;8.30;99.90;;;;;;5009397;28;20092;-72
2023/01/11 05:34:32;;;;;;;4.60;1.45;;;8.30;99.90;;;;;;5025134;28;20096;-72
2023/01/11 05:36:58;;;;;;;7.57;2.58;;;8.30;99.90;;;;;;5026931;28;20075;-73
2023/01/11 05:39:25;;;;;;;7.65;3.22;;;8.30;99.90;;;;;;5026988;28;20092;-73
2023/01/11 05:41:52;;;;;;;5.45;1.58;;;8.30;99.90;;;;;;5025164;28;20049;-73
2023/01/11 05:47:04;;;;;;;7.97;1.80;;;8.30;99.90;;;;;;5014547;28;20060;-73
2023/01/11 05:49:31;;;;;;;3.55;1.83;;;8.30;99.90;;;;;;5013635;28;20084;-73
2023/01/11 05:51:58;;;;;;;8.65;2.63;;;8.30;99.90;;;;;;5023804;28;20061;-72
2023/01/11 05:54:24;;;;;;;7.25;1.90;;;8.30;99.90;;;;;;5022478;28;20124;-73
2023/01/11 05:56:51;;;;;;;10.25;2.47;;;8.30;99.90;;;;;;5022541;28;20058;-73
2023/01/11 05:59:18;;;;;;;9.18;2.47;;;8.30;99.90;;;;;;5024137;28;20099;-73
2023/01/11 06:01:45;;;;;;;7.97;1.60;;;8.40;99.90;;;;;;5024770;28;20073;-73
2023/01/11 06:04:13;;;;;;;4.35;1.40;;;8.40;99.90;;;;;;5017839;28;20063;-73
2023/01/11 06:06:40;;;;;;;3.70;1.45;;;8.40;99.90;;;;;;5020400;28;20081;-73
2023/01/11 06:09:06;;;;;;;5.03;1.70;;;8.30;99.90;;;;;;5021482;28;20132;-73
2023/01/11 06:11:33;;;;;;;5.32;1.65;;;8.30;99.90;;;;;;5023939;28;20081;-73
2023/01/11 06:14:00;;;;;;;6.28;1.60;;;8.30;99.90;;;;;;5023238;28;20257;-73
2023/01/11 06:16:27;;;;;;;7.72;1.75;;;8.30;99.90;;;;;;5017714;28;20140;-72
2023/01/11 06:18:53;;;;;;;6.22;2.03;;;8.40;99.90;;;;;;5012678;28;20046;-73
2023/01/11 06:21:20;;;;;;;7.15;2.47;;;8.40;99.90;;;;;;5013406;28;20140;-73
2023/01/11 06:23:49;;;;;;;6.32;1.85;;;8.40;99.90;;;;;;5010073;28;20074;-73
2023/01/11 06:26:18;;;;;;;7.05;2.47;;;8.40;99.90;;;;;;5009520;28;20885;-73
2023/01/11 06:28:45;;;;;;;7.90;2.15;;;8.40;99.90;;;;;;5008704;28;20132;-73
2023/01/11 06:31:12;;;;;;;7.95;1.95;;;8.40;99.90;;;;;;4996682;28;20145;-73
2023/01/11 06:33:42;;;;;;;7.90;2.22;;;8.40;99.90;;;;;;5007565;28;20494;-73
2023/01/11 06:36:10;;;;;;;9.82;2.05;;;8.40;99.90;;;;;;4992204;28;20080;-73
2023/01/11 06:38:37;;;;;;;7.15;1.83;;;8.40;99.90;;;;;;5010550;28;20099;-73
2023/01/11 06:41:07;;;;;;;7.65;2.05;;;8.40;99.90;;;;;;5011177;28;20283;-73
2023/01/11 06:43:34;;;;;;;4.30;1.42;;;8.40;99.90;;;;;;5014313;28;20053;-72
2023/01/11 06:46:00;;;;;;;7.43;2.05;;;8.40;99.90;;;;;;5019488;28;20059;-72
2023/01/11 06:48:27;;;;;;;7.35;1.92;;;8.40;99.90;;;;;;5017450;28;20060;-71
2023/01/11 06:50:56;;;;;;;7.15;2.30;;;8.40;99.90;;;;;;5011738;28;20053;-72
2023/01/11 06:53:23;;;;;;;5.55;2.03;;;8.30;99.90;;;;;;5024670;28;20057;-72
2023/01/11 06:55:53;;;;;;;13.43;3.53;;;8.30;99.90;;;;;;5014846;28;20053;-72
2023/01/11 06:58:22;;;;;;;4.97;1.95;;;8.30;99.90;;;;;;5013133;28;20042;-73
2023/01/11 07:00:52;;;;;;;7.18;2.45;;;8.30;99.90;;;;;;5016563;28;20049;-72
2023/01/11 07:03:23;;;;;;;11.85;2.55;;;8.30;99.90;;;;;;5015422;28;20046;-71
2023/01/11 07:05:50;;;;;;;5.90;1.75;;;8.30;99.90;;;;;;5016371;28;20458;-72
2023/01/11 07:08:17;;;;;;;9.38;1.92;;;8.30;99.90;;;;;;4998079;28;20113;-72
2023/01/11 07:10:44;;;;;;;6.43;1.85;;;8.20;99.90;;;;;;4998138;28;20805;-72
2023/01/11 07:13:11;;;;;;;8.65;2.40;;;8.20;99.90;;;;;;5016176;28;20069;-72
2023/01/11 07:15:38;;;;;;;3.80;1.40;;;8.20;99.90;;;;;;4996392;28;20057;-72
2023/01/11 07:18:05;;;;;;;5.60;2.05;;;8.20;99.90;;;;;;5017085;28;20056;-72
2023/01/11 07:20:31;;;;;;;5.28;1.52;;;8.20;99.90;;;;;;5016143;28;20053;-72
2023/01/11 07:22:59;;;;;;;5.18;1.67;;;8.20;99.90;;;;;;5015873;28;20133;-72
2023/01/11 07:25:26;;;;;;;7.07;1.83;;;8.10;99.90;;;;;;5016570;28;20076;-72
2023/01/11 07:27:57;;;;;;;7.63;2.33;;;8.10;99.90;;;;;;5015307;28;20168;-72
2023/01/11 07:30:25;;;;;;;6.70;1.90;;;8.20;99.90;;;;;;5015389;28;20511;-73
2023/01/11 07:32:52;;;;;;;6.80;2.17;;;8.20;99.90;;;;;;4980683;28;20045;-72
2023/01/11 07:35:19;;;;;;;6.80;1.85;;;8.20;99.90;;;;;;4998336;28;20739;-72
2023/01/11 07:37:45;;;;;;;5.38;1.50;;;8.20;99.90;;;;;;5014577;28;20075;-72
2023/01/11 07:40:12;;;;;;;5.78;1.75;;;8.20;99.90;;;;;;5015254;28;20062;-72
2023/01/11 07:45:24;;;;;;;6.40;1.95;;;8.20;99.90;;;;;;5019669;28;20127;-72
2023/01/11 07:48:08;;;;;;;4.65;1.60;;;8.20;99.90;;;;;;5017447;28;20454;-72
2023/01/11 07:50:39;;;;;;;4.88;2.25;;;8.20;99.90;;;;;;5002011;28;20038;-72
2023/01/11 07:53:08;;;;;;;;;;;8.20;99.90;;;;;;5003453;28;20576;-73
2023/01/11 07:55:36;;;;;;;7.85;2.28;;;8.20;99.90;;;;;;5019309;28;20351;-73
2023/01/11 07:58:03;;;;;;;6.07;2.20;;;8.20;99.90;;;;;;5017092;28;20053;-73
2023/01/11 08:00:30;;;;;;;4.80;1.65;;;8.20;99.90;;;;;;5018540;28;20147;-73
2023/01/11 08:02:57;;;;;;;5.72;1.92;;;8.20;99.90;;;;;;5005422;28;20064;-73
2023/01/11 08:05:23;;;;;;;8.82;2.22;;;8.30;99.90;;;;;;5014909;28;20041;-73
2023/01/11 08:07:50;;;;;;;8.20;1.90;;;8.30;99.90;;;;;;5018071;28;20407;-73
2023/01/11 08:10:17;;;;;;;4.28;1.83;;;8.30;99.90;;;;;;5018289;28;20070;-73
2023/01/11 08:15:31;;;;;;;5.50;1.70;;;8.30;99.90;;;;;;5009487;28;20056;-73
2023/01/11 08:17:58;;;;;;;6.32;2.10;;;8.30;99.90;;;;;;5002763;28;20064;-73
2023/01/11 08:20:25;;;;;;;5.57;1.50;;;8.30;99.90;;;;;;5015466;28;20534;-73
2023/01/11 08:22:52;;;;;;;2.38;1.08;;;8.30;99.90;;;;;;5014309;28;20136;-73
2023/01/11 08:25:19;;;;;;;5.50;1.70;;;8.30;99.90;;;;;;5007717;28;20076;-73
2023/01/11 08:27:46;;;;;;;6.13;1.98;;;8.30;99.90;;;;;;5007324;28;20053;-72
2023/01/11 08:30:13;;;;;;;3.00;1.13;;;8.30;99.90;;;;;;5018663;28;20057;-72
2023/01/11 08:32:40;;;;;;;2.92;1.20;;;8.30;99.90;;;;;;5019579;28;20559;-72
2023/01/11 08:35:07;;;;;;;3.50;1.38;;;8.30;99.90;;;;;;5004015;28;20058;-72
2023/01/11 08:37:34;;;;;;;4.82;1.55;;;8.30;99.90;;;;;;4999931;28;20084;-72
2023/01/11 08:40:00;;;;;;;6.05;1.60;;;8.30;99.90;;;;;;5018366;28;20049;-72
2023/01/11 08:42:27;;;;;;;3.60;1.85;;;8.30;99.90;;;;;;5005854;28;20143;-72
2023/01/11 08:44:54;;;;;;;2.80;1.67;;;8.30;99.90;;;;;;4985669;28;20052;-72
2023/01/11 08:47:21;;;;;;;5.30;1.30;;;8.30;99.90;;;;;;5017331;28;20409;-72
2023/01/11 08:49:48;;;;;;;4.10;1.40;;;8.30;99.90;;;;;;5010466;28;20133;-72
2023/01/11 08:52:15;;;;;;;4.75;1.73;;;8.30;99.90;;;;;;5011079;28;20049;-73
2023/01/11 08:54:42;;;;;;;6.43;1.45;;;8.30;99.90;;;;;;5001304;28;20256;-72
2023/01/11 08:57:09;;;;;;;5.13;1.40;;;8.30;99.90;;;;;;5013524;28;20041;-72
2023/01/11 08:59:36;;;;;;;4.07;1.60;;;8.30;99.90;;;;;;5017524;28;20057;-72
2023/01/11 09:02:04;;;;;;;5.03;1.70;;;8.30;99.90;;;;;;5017177;28;20561;-72
2023/01/11 09:04:32;;;;;;;3.35;1.30;;;8.30;99.90;;;;;;5013652;28;20176;-73
2023/01/11 09:07:00;;;;;;;3.15;1.25;;;8.20;99.90;;;;;;5002374;28;20096;-73
2023/01/11 09:09:27;;;;;;;3.55;1.40;;;8.20;99.90;;;;;;5001966;28;20080;-75
2023/01/11 09:11:55;;;;;;;4.35;1.55;;;8.20;99.90;;;;;;5018502;28;20056;-72
2023/01/11 09:14:23;;;;;;;4.00;1.50;;;8.20;99.90;;;;;;5017560;28;20653;-75
2023/01/11 09:16:51;;;;;;;3.13;1.50;;;8.20;99.90;;;;;;4998770;28;20085;-72
2023/01/11 09:19:17;;;;;;;4.05;1.73;;;8.20;99.90;;;;;;4995290;28;20073;-72
2023/01/11 09:21:45;;;;;;;4.53;1.80;;;8.20;99.90;;;;;;5012235;28;20061;-72
2023/01/11 09:24:12;;;;;;;7.00;2.13;;;8.20;99.90;;;;;;5011505;28;20540;-72
2023/01/11 09:26:41;;;;;;;5.40;2.40;;;8.10;99.90;;;;;;5015982;28;20073;-72
2023/01/11 09:29:08;;;;;;;6.88;2.17;;;8.10;99.90;;;;;;5011481;28;20041;-72
2023/01/11 09:31:34;;;;;;;5.57;1.77;;;8.20;99.90;;;;;;5015686;28;20072;-72
2023/01/11 09:34:03;;;;;;;2.65;1.33;;;8.20;99.90;;;;;;5009148;28;20049;-72
2023/01/11 09:36:31;;;;;;;4.15;1.80;;;8.20;99.90;;;;;;5012994;28;20045;-71
2023/01/11 09:39:00;;;;;;;6.60;1.80;;;8.30;99.90;;;;;;5014926;28;20429;-72
2023/01/11 09:41:34;;;;;;;5.15;2.10;;;8.30;99.90;;;;;;4998847;28;20052;-72
2023/01/11 09:44:01;;;;;;;;;;;8.40;99.90;;;;;;5014392;28;20406;-73
2023/01/11 09:46:28;;;;;;;4.43;1.95;;;8.50;99.90;;;;;;5009046;28;20356;-73
2023/01/11 09:48:59;;;;;;;7.70;2.03;;;8.50;99.90;;;;;;5013569;28;20089;-73
2023/01/11 09:51:32;;;;;;;8.05;2.85;;;8.50;99.90;;;;;;4993761;28;20065;-72
2023/01/11 09:54:00;;;;;;;8.48;2.40;;;8.60;99.90;;;;;;4999754;28;20117;-72
2023/01/11 09:56:32;;;;;;;6.60;1.83;;;8.60;99.90;;;;;;5009195;28;20048;-72
2023/01/11 09:59:21;;;;;;;5.00;1.67;;;8.70;99.90;;;;;;5001053;28;20847;-72
2023/01/11 10:01:54;;;;;;;6.35;2.08;;;8.80;99.90;;;;;;5000704;28;20065;-72
2023/01/11 10:04:31;;;;;;;4.83;2.00;;;8.80;99.90;;;;;;5010369;28;20232;-72
2023/01/11 10:07:22;;;;;;;9.20;2.33;;;8.90;99.90;;;;;;4999512;28;20053;-72
2023/01/11 10:09:58;;;;;;;9.32;2.75;;;9.00;99.90;;;;;;4998978;28;20045;-72
2023/01/11 10:12:55;;;;;;;5.63;1.85;;;9.00;99.90;;;;;;5015266;28;20069;-73
2023/01/11 10:16:06;;;;;;;9.10;2.15;;;9.10;99.90;;;;;;5011320;28;20058;-72
2023/01/11 10:19:08;;;;;;;7.43;2.20;;;9.20;99.90;;;;;;5010549;28;20057;-72
2023/01/11 10:22:03;;;;;;;7.25;2.55;;;9.30;99.90;;;;;;5003121;28;20061;-72
2023/01/11 10:24:37;;;;;;;6.78;1.88;;;9.30;99.90;;;;;;5011124;28;20084;-72
2023/01/11 10:27:08;;;;;;;8.52;2.13;;;9.30;99.90;;;;;;4998862;28;20148;-72
2023/01/11 10:30:11;;;;;;;7.90;1.98;;;9.30;99.90;;;;;;5015613;28;20090;-75
2023/01/11 10:33:13;;;;;;;5.10;1.95;;;9.30;99.90;;;;;;4998933;28;20107;-75
2023/01/11 10:35:56;;;;;;;4.55;1.80;;;9.40;99.90;;;;;;5001642;28;20068;-75
2023/01/11 10:41:32;;;;;;;7.43;2.40;;;9.40;99.90;;;;;;5008655;28;20508;-75
2023/01/11 10:44:09;;;;;;;5.35;2.00;;;9.40;99.90;;;;;;5006825;28;20068;-74
2023/01/11 10:46:38;;;;;;;4.30;1.58;;;9.40;99.90;;;;;;5014430;28;20556;-74
2023/01/11 10:49:38;;;;;;;4.82;1.60;;;9.50;99.90;;;;;;4996834;28;20957;-76
2023/01/11 10:52:34;;;;;;;7.55;2.00;;;9.50;99.90;;;;;;5012229;28;20430;-75
2023/01/11 10:55:13;;;;;;;3.72;1.90;;;9.50;99.90;;;;;;4997081;28;20064;-75
2023/01/11 10:57:59;;;;;;;6.97;2.55;;;9.50;99.90;;;;;;5010476;28;20414;-75
2023/01/11 11:00:50;;;;;;;6.50;2.35;;;9.60;99.90;;;;;;4997098;28;20138;-75
2023/01/11 11:03:29;;;;;;;6.50;1.90;;;9.60;99.90;;;;;;5017697;28;20045;-75
2023/01/11 11:06:11;;;;;;;3.70;1.60;;;9.60;99.90;;;;;;5015611;28;20210;-74
2023/01/11 11:08:47;;;;;;;5.03;1.70;;;9.60;99.90;;;;;;5014718;28;20103;-76
2023/01/11 11:11:34;;;;;;;6.40;1.95;;;9.70;99.90;;;;;;5013637;28;20045;-75
2023/01/11 11:14:12;;;;;;;6.55;1.65;;;9.70;99.90;;;;;;5018124;28;20056;-74
2023/01/11 11:16:45;;;;;;;4.30;1.48;;;9.80;99.90;;;;;;5018176;28;20041;-75
2023/01/11 11:19:15;;;;;;;6.00;2.28;;;9.80;99.90;;;;;;5013659;28;20124;-74
2023/01/11 11:21:42;;;;;;;5.47;1.65;;;9.90;99.90;;;;;;5003448;28;20523;-74
2023/01/11 11:24:31;;;;;;;5.13;1.90;;;9.90;99.90;;;;;;5009440;28;20122;-70
2023/01/11 11:27:21;;;;;;;8.50;2.50;;;10.00;99.90;;;;;;4998439;28;20056;-69
2023/01/11 11:29:49;;;;;;;5.72;1.88;;;10.00;99.90;;;;;;5006544;28;20088;-70
2023/01/11 11:32:19;;;;;;;4.22;2.08;;;10.00;99.90;;;;;;5002130;28;20046;-70
2023/01/11 11:34:49;;;;;;;4.00;1.33;;;10.10;99.90;;;;;;5020434;28;20050;-69
2023/01/11 11:37:30;;;;;;;5.43;1.52;;;10.10;99.90;;;;;;5005088;28;20095;-70
2023/01/11 11:39:57;;;;;;;5.53;1.95;;;10.20;99.90;;;;;;5022119;28;20084;-70
2023/01/11 11:42:24;;;;;;;4.20;1.50;;;10.20;99.90;;;;;;5005033;28;20497;-69
2023/01/11 11:45:09;;;;;;;3.50;1.48;;;10.30;99.90;;;;;;5005517;28;20472;-69
2023/01/11 11:47:37;;;;;;;4.15;1.38;;;10.30;99.90;;;;;;5022483;28;20585;-69
2023/01/11 11:50:19;;;;;;;2.90;1.60;;;10.40;99.90;;;;;;5019561;28;20132;-70
2023/01/11 11:53:05;;;;;;;4.53;1.83;;;10.50;99.90;;;;;;5018627;28;20556;-69
2023/01/11 11:55:33;;;;;;;4.13;1.50;;;10.50;99.90;;;;;;5001665;28;20111;-69
2023/01/11 11:58:05;;;;;;;3.00;1.40;;;10.50;99.90;;;;;;4985909;28;20057;-70
2023/01/11 12:00:34;;;;;;;2.60;1.48;;;10.50;99.90;;;;;;5002084;28;20080;-69
2023/01/11 12:03:06;;;;;;;5.40;1.90;;;10.60;99.90;;;;;;5017354;28;20053;-69
2023/01/11 12:05:33;;;;;;;3.85;1.40;;;10.70;99.90;;;;;;5017321;28;20045;-69
2023/01/11 12:08:00;;;;;;;4.05;1.20;;;10.70;99.90;;;;;;5017595;28;20153;-70
2023/01/11 12:10:27;;;;;;;4.70;1.50;;;10.80;99.90;;;;;;5017862;28;20409;-70
2023/01/11 12:12:55;;;;;;;3.90;1.50;;;10.80;99.90;;;;;;5000987;28;20358;-69
2023/01/11 12:15:27;;;;;;;4.95;1.95;;;10.80;99.90;;;;;;5017979;28;20093;-70
2023/01/11 12:17:54;;;;;;;4.75;1.70;;;10.90;99.90;;;;;;5017638;28;20084;-70
2023/01/11 12:20:21;;;;;;;5.30;1.65;;;10.80;99.90;;;;;;5016892;28;20092;-70
2023/01/11 12:23:07;;;;;;;2.80;1.35;;;10.80;99.90;;;;;;5017950;28;20489;-70
2023/01/11 12:25:48;;;;;;;5.75;1.65;;;10.90;99.90;;;;;;5019506;28;20474;-70
2023/01/11 12:28:47;;;;;;;3.95;1.50;;;11.00;99.90;;;;;;5001948;28;20099;-70
2023/01/11 12:31:33;;;;;;;4.95;1.63;;;11.10;99.90;;;;;;5021581;28;20052;-70
2023/01/11 12:34:21;;;;;;;2.63;1.55;;;11.20;99.90;;;;;;5020359;28;20050;-70
2023/01/11 12:37:13;;;;;;;3.45;1.65;;;11.20;99.90;;;;;;5005040;28;20057;-70
2023/01/11 12:40:18;;;;;;;3.90;1.73;;;11.20;99.90;;;;;;5023314;28;20041;-70
2023/01/11 12:43:23;;;;;;;5.35;1.92;;;11.30;99.90;;;;;;5022170;28;20132;-70
2023/01/11 12:46:05;;;;;;;3.25;1.63;;;11.40;99.90;;;;;;5021420;28;20091;-70
2023/01/11 12:48:42;;;;;;;5.78;1.90;;;11.50;99.90;;;;;;5019870;28;20057;-71
2023/01/11 12:51:22;;;;;;;3.97;1.77;;;11.40;99.90;;;;;;5010367;28;20103;-70
2023/01/11 12:54:15;;;;;;;7.18;1.83;;;11.40;99.90;;;;;;5004779;28;20069;-70
2023/01/11 12:57:33;;;;;;;2.50;1.43;;;11.30;99.90;;;;;;5013191;28;20049;-70
2023/01/11 13:00:25;;;;;;;4.60;1.80;;;11.40;99.90;;;;;;4972706;28;20049;-70
2023/01/11 13:03:07;;;;;;;5.13;1.73;;;11.70;99.90;;;;;;5012955;28;20051;-70
2023/01/11 13:05:55;;;;;;;5.57;1.73;;;11.70;99.90;;;;;;4997371;28;20078;-70
2023/01/11 13:08:47;;;;;;;2.80;1.40;;;11.50;99.90;;;;;;5010309;28;20556;-70
2023/01/11 13:11:33;;;;;;;4.38;1.45;;;11.40;99.90;;;;;;5035720;28;20132;-74
2023/01/11 13:14:18;;;;;;;3.75;1.60;;;11.30;99.90;;;;;;5021628;28;20057;-70
2023/01/11 13:16:53;;;;;;;4.93;2.15;;;11.20;99.90;;;;;;5022576;28;21082;-69
2023/01/11 13:19:23;;;;;;;3.58;1.70;;;11.20;99.90;;;;;;5020161;28;20635;-69
2023/01/11 13:21:52;;;;;;;4.05;1.88;;;11.20;99.90;;;;;;4987520;28;20049;-69
2023/01/11 13:24:25;;;;;;;7.13;2.03;;;11.20;99.90;;;;;;5020089;28;20142;-69
2023/01/11 13:26:55;;;;;;;7.25;2.35;;;11.10;99.90;;;;;;5020487;28;20076;-69
2023/01/11 13:29:29;;;;;;;4.18;2.10;;;11.10;99.90;;;;;;5004876;28;20053;-69
2023/01/11 13:32:01;;;;;;;4.10;2.20;;;11.20;99.90;;;;;;5023474;28;20095;-69
2023/01/11 13:34:37;;;;;;;4.85;2.10;;;11.30;99.90;;;;;;5004846;28;20304;-77
2023/01/11 13:37:15;;;;;;;5.25;2.05;;;11.30;99.90;;;;;;5020387;28;20099;-78
2023/01/11 13:39:53;;;;;;;7.20;1.77;;;11.40;99.90;;;;;;5004765;28;20139;-77
2023/01/11 13:42:24;;;;;;;3.50;1.48;;;11.40;99.90;;;;;;4986883;28;20494;-77
2023/01/11 13:44:56;;;;;;;4.72;1.98;;;11.40;99.90;;;;;;5000870;28;20053;-78
2023/01/11 13:47:29;;;;;;;3.78;2.10;;;11.40;99.90;;;;;;4985348;28;20277;-77
2023/01/11 13:49:58;;;;;;;5.65;2.08;;;11.30;99.90;;;;;;5015859;28;20057;-77